Time;durP1;ratioP1;P1;durP2;ratioP2;P2;SDS_P1;SDS_P2;PMS_P1;PMS_P2;Temp;Humidity;BMP_temperature;BMP_pressure;BME280_temperature;BME280_humidity;BME280_pressure;Samples;Min_cycle;Max_cycle;Signal;HPM_P1;HPM_P2
2023/03/12 00:00:45;;;;;;;25.90;17.13;;;;;;;0.38;77.07;100833.59;5115598;28;20181;-68
2023/03/12 00:03:12;;;;;;;34.17;19.00;;;;;;;0.39;76.63;100824.81;5115460;28;20205;-68
2023/03/12 00:05:40;;;;;;;41.70;18.37;;;;;;;0.32;78.04;100825.88;5115427;28;20201;-68
2023/03/12 00:08:07;;;;;;;27.03;17.93;;;;;;;0.28;78.12;100832.13;5115737;28;20181;-68
2023/03/12 00:10:34;;;;;;;35.33;18.47;;;;;;;0.27;77.90;100826.00;5115668;28;20242;-68
2023/03/12 00:13:00;;;;;;;25.87;18.10;;;;;;;0.20;77.60;100822.69;5115318;28;20209;-68
2023/03/12 00:15:27;;;;;;;32.83;18.33;;;;;;;0.23;77.47;100836.66;5115591;28;20181;-68
2023/03/12 00:17:53;;;;;;;29.30;17.73;;;;;;;0.19;76.11;100838.50;5115531;28;20189;-68
2023/03/12 00:20:22;;;;;;;27.37;17.57;;;;;;;0.18;75.96;100834.16;5115220;28;20188;-68
2023/03/12 00:22:49;;;;;;;29.53;17.63;;;;;;;0.16;75.38;100826.28;5115381;28;20196;-69
2023/03/12 00:25:15;;;;;;;26.10;16.40;;;;;;;0.21;76.65;100828.81;5114958;28;20212;-69
2023/03/12 00:27:42;;;;;;;30.50;16.30;;;;;;;0.21;75.25;100821.75;5115114;28;20232;-69
2023/03/12 00:30:09;;;;;;;28.60;15.10;;;;;;;0.12;75.82;100819.41;5115030;28;20217;-68
2023/03/12 00:32:36;;;;;;;29.30;15.20;;;;;;;0.16;75.59;100810.50;5114950;28;20679;-68
2023/03/12 00:35:04;;;;;;;26.20;14.90;;;;;;;0.14;75.46;100803.53;5114921;28;20181;-69
2023/03/12 00:37:32;;;;;;;34.93;15.83;;;;;;;0.20;75.75;100809.50;5114920;28;20189;-68
2023/03/12 00:40:00;;;;;;;34.83;15.40;;;;;;;0.23;74.98;100803.28;5115043;28;20190;-68
2023/03/12 00:42:27;;;;;;;20.07;14.17;;;;;;;0.27;74.89;100802.31;5114986;28;20224;-67
2023/03/12 00:44:53;;;;;;;21.13;13.70;;;;;;;0.34;75.65;100801.22;5096421;28;20200;-67
2023/03/12 00:47:20;;;;;;;22.23;13.33;;;;;;;0.36;74.76;100788.88;5096563;28;20193;-67
2023/03/12 00:49:46;;;;;;;22.00;14.53;;;;;;;0.39;75.76;100794.06;5114688;28;20276;-68
2023/03/12 00:52:12;;;;;;;22.97;15.03;;;;;;;0.41;75.21;100783.47;5114561;28;20213;-68
2023/03/12 00:54:39;;;;;;;23.90;14.40;;;;;;;0.39;75.97;100785.28;5114711;28;20180;-68
2023/03/12 00:57:05;;;;;;;22.07;13.93;;;;;;;0.41;76.11;100783.47;5096289;28;20628;-68
2023/03/12 00:59:34;;;;;;;17.90;13.67;;;;;;;0.41;74.84;100770.31;5096190;28;20289;-68
2023/03/12 01:02:00;;;;;;;17.20;12.23;;;;;;;0.45;74.96;100778.97;5096148;28;20209;-68
2023/03/12 01:04:26;;;;;;;24.63;12.80;;;;;;;0.46;74.99;100783.34;5096170;28;20193;-68
2023/03/12 01:06:54;;;;;;;24.87;13.43;;;;;;;0.49;75.18;100773.56;5114545;28;20239;-68
2023/03/12 01:09:20;;;;;;;23.93;14.93;;;;;;;0.48;74.41;100778.88;5114383;28;20200;-68
2023/03/12 01:11:47;;;;;;;15.83;12.57;;;;;;;0.51;73.70;100776.16;5095931;28;20209;-68
2023/03/12 01:14:13;;;;;;;24.97;13.70;;;;;;;0.47;74.30;100777.16;5114292;28;20203;-68
2023/03/12 01:16:40;;;;;;;17.57;13.13;;;;;;;0.50;74.68;100774.44;5114144;28;20177;-68
2023/03/12 01:19:06;;;;;;;15.90;12.77;;;;;;;0.57;74.65;100766.28;5095951;28;20563;-68
2023/03/12 01:21:32;;;;;;;16.77;12.07;;;;;;;0.53;73.87;100772.56;5114626;28;20205;-67
2023/03/12 01:23:59;;;;;;;18.07;13.67;;;;;;;0.56;74.03;100769.84;5113974;28;20192;-67
2023/03/12 01:26:25;;;;;;;15.63;11.77;;;;;;;0.62;74.51;100771.41;5114355;28;20235;-67
2023/03/12 01:28:52;;;;;;;18.27;12.53;;;;;;;0.59;74.09;100763.63;5114006;28;20185;-67
2023/03/12 01:31:18;;;;;;;22.33;12.97;;;;;;;0.63;74.41;100767.91;5113845;28;20197;-67
2023/03/12 01:33:50;;;;;;;17.30;11.63;;;;;;;0.61;73.27;100761.81;5114510;28;20540;-67
2023/03/12 01:36:16;;;;;;;14.27;11.43;;;;;;;0.56;73.12;100755.81;5113890;28;20273;-67
2023/03/12 01:38:43;;;;;;;14.97;10.73;;;;;;;0.51;74.24;100755.94;5095935;28;20193;-67
2023/03/12 01:41:09;;;;;;;13.73;12.13;;;;;;;0.54;73.37;100757.63;5114328;28;20192;-67
2023/03/12 01:43:37;;;;;;;14.00;12.60;;;;;;;0.59;73.35;100758.34;5114123;28;20188;-67
2023/03/12 01:46:26;;;;;;;16.17;11.97;;;;;;;0.56;73.62;100751.41;5095478;28;20209;-67
2023/03/12 01:49:20;;;;;;;13.87;11.77;;;;;;;0.59;73.94;100735.50;5114088;28;20158;-68
2023/03/12 01:51:59;;;;;;;19.10;13.50;;;;;;;0.59;74.08;100729.38;5096069;28;20231;-67
2023/03/12 01:54:38;;;;;;;24.83;12.00;;;;;;;0.62;74.47;100729.25;5096387;28;20633;-67
2023/03/12 01:57:10;;;;;;;13.50;12.10;;;;;;;0.62;73.76;100724.88;5095732;28;20242;-67
2023/03/12 01:59:53;;;;;;;21.93;12.17;;;;;;;0.64;74.27;100730.06;5113672;28;20162;-67
2023/03/12 02:02:25;;;;;;;12.27;11.03;;;;;;;0.67;74.53;100726.50;5095368;28;20292;-68
2023/03/12 02:04:58;;;;;;;18.17;11.47;;;;;;;0.71;73.98;100726.34;5114536;28;20173;-68
2023/03/12 02:07:25;;;;;;;15.63;11.33;;;;;;;0.69;75.27;100722.03;5099603;28;20236;-68
2023/03/12 02:09:51;;;;;;;11.60;10.40;;;;;;;0.69;74.59;100716.75;5118063;28;20195;-68
2023/03/12 02:12:17;;;;;;;13.10;11.80;;;;;;;0.73;73.94;100719.25;5117989;28;20201;-68
2023/03/12 02:14:44;;;;;;;17.07;12.13;;;;;;;0.71;73.35;100713.16;5117712;28;20554;-68
2023/03/12 02:17:11;;;;;;;16.70;11.83;;;;;;;0.73;72.74;100713.13;5099347;28;20284;-68
2023/03/12 02:20:06;;;;;;;20.63;11.83;;;;;;;0.79;71.35;100702.38;5099285;28;20185;-68
2023/03/12 02:22:34;;;;;;;11.83;10.67;;;;;;;0.81;72.62;100704.09;5071460;28;20718;-68
2023/03/12 02:25:20;;;;;;;14.03;11.27;;;;;;;0.83;72.29;100709.28;5117508;28;20189;-68
2023/03/12 02:27:47;;;;;;;15.40;10.20;;;;;;;0.80;72.91;100704.97;5099217;28;20212;-68
2023/03/12 02:30:15;;;;;;;11.10;9.37;;;;;;;0.78;72.85;100701.53;5099340;28;20200;-68
2023/03/12 02:32:44;;;;;;;12.70;11.07;;;;;;;0.80;71.94;100691.78;5098990;28;20205;-68
2023/03/12 02:35:13;;;;;;;11.73;10.60;;;;;;;0.84;72.41;100692.56;5099783;28;20638;-68
2023/03/12 02:37:47;;;;;;;13.27;9.30;;;;;;;0.85;72.17;100683.75;5117370;28;20288;-68
2023/03/12 02:40:37;;;;;;;13.03;9.47;;;;;;;0.90;71.35;100692.34;5098994;28;20181;-68
2023/03/12 02:43:08;;;;;;;7.90;7.13;;;;;;;0.91;70.94;100694.09;5117226;28;20671;-67
2023/03/12 02:45:37;;;;;;;9.73;8.80;;;;;;;0.93;70.70;100696.66;5099671;28;20238;-68
2023/03/12 02:48:07;;;;;;;12.47;9.87;;;;;;;0.96;71.42;100694.81;5098797;28;20208;-68
2023/03/12 02:50:34;;;;;;;10.77;8.43;;;;;;;0.91;71.10;100682.66;5099636;28;20185;-68
2023/03/12 02:53:02;;;;;;;8.60;7.90;;;;;;;0.98;69.85;100679.81;5098643;28;20691;-68
2023/03/12 02:55:28;;;;;;;9.63;8.70;;;;;;;0.94;70.39;100682.59;5099069;28;20221;-68
2023/03/12 02:57:54;;;;;;;11.93;7.90;;;;;;;0.98;70.43;100679.81;5098890;28;20284;-68
2023/03/12 03:00:21;;;;;;;24.47;7.40;;;;;;;0.94;69.73;100677.31;5098595;28;20243;-68
2023/03/12 03:02:50;;;;;;;15.13;9.20;;;;;;;1.03;70.14;100677.00;5098458;28;20224;-67
2023/03/12 03:05:16;;;;;;;8.77;7.90;;;;;;;1.04;68.61;100674.31;5098533;28;20287;-67
2023/03/12 03:07:43;;;;;;;8.47;7.97;;;;;;;1.05;69.14;100670.78;5116628;28;20245;-67
2023/03/12 03:10:10;;;;;;;8.00;7.30;;;;;;;1.02;69.57;100660.31;5116959;28;20185;-67
2023/03/12 03:12:36;;;;;;;8.10;7.47;;;;;;;0.99;70.23;100663.06;5098291;28;20220;-67
2023/03/12 03:15:04;;;;;;;8.47;7.63;;;;;;;1.03;69.47;100671.72;5098596;28;20190;-67
2023/03/12 03:17:30;;;;;;;8.97;8.10;;;;;;;0.94;69.97;100664.13;5096816;28;20215;-67
2023/03/12 03:19:57;;;;;;;17.03;8.67;;;;;;;0.90;70.23;100659.88;5098122;28;20314;-68
2023/03/12 03:22:23;;;;;;;13.13;7.40;;;;;;;0.79;70.06;100652.28;5116615;28;20577;-68
2023/03/12 03:24:52;;;;;;;11.77;8.03;;;;;;;0.75;70.62;100653.34;5116460;28;20272;-68
2023/03/12 03:27:19;;;;;;;10.23;7.33;;;;;;;0.73;70.05;100652.50;5116230;28;20563;-68
2023/03/12 03:29:45;;;;;;;10.00;7.73;;;;;;;0.73;70.82;100652.50;5116256;28;20677;-68
2023/03/12 03:32:15;;;;;;;7.77;7.20;;;;;;;0.69;70.41;100646.47;5116792;28;20206;-68
2023/03/12 03:34:42;;;;;;;9.00;8.00;;;;;;;0.66;70.33;100646.56;5116429;28;20185;-68
2023/03/12 03:37:08;;;;;;;8.70;7.77;;;;;;;0.68;70.77;100641.25;5116407;28;20177;-68
2023/03/12 03:39:35;;;;;;;9.03;8.07;;;;;;;0.68;70.26;100643.91;5098126;28;20193;-68
2023/03/12 03:42:02;;;;;;;7.73;7.03;;;;;;;0.67;70.33;100639.53;5115958;28;20246;-67
2023/03/12 03:44:31;;;;;;;10.40;9.00;;;;;;;0.77;70.67;100644.47;5097932;28;20193;-67
2023/03/12 03:46:57;;;;;;;9.70;7.87;;;;;;;0.75;71.14;100633.09;5116115;28;20209;-67
2023/03/12 03:49:24;;;;;;;8.73;7.60;;;;;;;0.80;70.98;100635.59;5097643;28;20239;-67
2023/03/12 03:51:50;;;;;;;7.17;6.97;;;;;;;0.84;71.49;100629.31;5097492;28;20760;-67
2023/03/12 03:54:24;;;;;;;7.37;6.87;;;;;;;0.87;70.78;100629.19;5097776;28;20272;-67
2023/03/12 03:56:51;;;;;;;8.50;7.90;;;;;;;0.89;70.56;100639.66;5097581;28;20200;-67
2023/03/12 03:59:18;;;;;;;8.37;7.40;;;;;;;0.91;70.52;100641.38;5098009;28;20197;-67
2023/03/12 04:01:46;;;;;;;9.20;8.07;;;;;;;0.90;70.03;100636.16;5097372;28;20213;-67
2023/03/12 04:04:12;;;;;;;7.10;6.60;;;;;;;0.93;70.00;100634.25;5097292;28;20674;-67
2023/03/12 04:06:39;;;;;;;6.30;5.93;;;;;;;1.00;70.18;100632.28;5097229;28;20206;-67
2023/03/12 04:09:05;;;;;;;11.70;6.57;;;;;;;1.03;69.56;100619.88;5097558;28;20567;-67
2023/03/12 04:11:34;;;;;;;8.50;7.90;;;;;;;1.10;69.48;100619.63;5097092;28;20707;-67
2023/03/12 04:14:02;;;;;;;9.10;8.20;;;;;;;1.09;69.48;100624.06;5097116;28;20202;-67
2023/03/12 04:16:31;;;;;;;8.93;6.97;;;;;;;1.20;68.54;100615.78;5097916;28;20185;-67
2023/03/12 04:18:57;;;;;;;7.00;6.53;;;;;;;1.23;68.65;100613.03;5097061;28;20224;-67
2023/03/12 04:21:25;;;;;;;6.63;6.13;;;;;;;1.22;68.95;100619.22;5096994;28;20617;-68
2023/03/12 04:23:51;;;;;;;5.40;5.30;;;;;;;1.22;69.20;100625.38;5096845;28;20188;-68
2023/03/12 04:26:21;;;;;;;5.40;5.17;;;;;;;1.24;68.08;100622.66;5096879;28;20796;-68
2023/03/12 04:28:48;;;;;;;5.43;5.13;;;;;;;1.36;68.09;100624.84;5096314;28;20189;-68
2023/03/12 04:31:14;;;;;;;5.97;5.80;;;;;;;1.35;67.49;100614.38;5115260;28;20648;-67
2023/03/12 04:33:47;;;;;;;5.80;5.60;;;;;;;1.41;68.04;100609.75;5115871;28;20179;-67
2023/03/12 04:36:15;;;;;;;8.83;7.17;;;;;;;1.45;68.17;100602.56;5096655;28;20189;-67
2023/03/12 04:38:43;;;;;;;5.40;4.97;;;;;;;1.49;68.27;100598.91;5096617;28;20189;-67
2023/03/12 04:41:14;;;;;;;11.93;5.17;;;;;;;1.51;67.62;100594.44;5096771;28;20193;-67
2023/03/12 04:43:51;;;;;;;5.03;4.67;;;;;;;1.56;67.46;100583.72;5096609;28;20224;-67
2023/03/12 04:46:19;;;;;;;8.03;4.30;;;;;;;1.68;66.55;100588.53;5096484;28;20235;-67
2023/03/12 04:48:45;;;;;;;6.90;3.83;;;;;;;1.83;64.89;100601.16;5079681;28;20288;-67
2023/03/12 04:51:13;;;;;;;4.90;4.30;;;;;;;1.95;64.05;100596.34;5096395;28;20189;-67
2023/03/12 04:53:39;;;;;;;8.37;5.27;;;;;;;1.99;64.30;100593.53;5096438;28;20234;-67
2023/03/12 04:56:08;;;;;;;7.23;4.57;;;;;;;2.07;63.88;100591.44;5096345;28;20659;-67
2023/03/12 04:58:35;;;;;;;3.60;3.50;;;;;;;2.13;63.90;100587.69;5096273;28;20238;-67
2023/03/12 05:01:02;;;;;;;5.83;4.33;;;;;;;2.17;63.14;100581.34;5114513;28;20277;-67
2023/03/12 05:03:28;;;;;;;7.93;4.57;;;;;;;2.16;63.18;100569.09;5096262;28;20187;-67
2023/03/12 05:05:56;;;;;;;4.63;3.70;;;;;;;2.22;62.28;100566.19;5096180;28;20666;-67
2023/03/12 05:08:23;;;;;;;4.67;4.40;;;;;;;2.41;61.71;100562.81;5096154;28;20211;-67
2023/03/12 05:10:49;;;;;;;5.33;4.47;;;;;;;2.34;62.93;100548.97;5114699;28;20211;-68
2023/03/12 05:13:19;;;;;;;3.67;3.30;;;;;;;2.40;61.59;100553.19;5114280;28;20208;-67
2023/03/12 05:15:49;;;;;;;4.87;4.47;;;;;;;2.41;62.05;100558.38;5096906;28;20540;-67
2023/03/12 05:18:19;;;;;;;5.30;3.90;;;;;;;2.39;62.01;100560.22;5095922;28;20192;-68
2023/03/12 05:20:46;;;;;;;4.93;4.60;;;;;;;2.40;62.16;100554.03;5095903;28;20195;-68
2023/03/12 05:23:12;;;;;;;4.27;4.00;;;;;;;2.45;61.77;100552.06;5114020;28;20231;-67
2023/03/12 05:25:40;;;;;;;4.80;4.17;;;;;;;2.49;62.25;100545.72;5095817;28;20192;-67
2023/03/12 05:28:07;;;;;;;4.83;4.43;;;;;;;2.50;61.08;100546.59;5095662;28;20372;-67
2023/03/12 05:30:35;;;;;;;4.03;3.93;;;;;;;2.56;61.55;100554.22;5096359;28;20192;-67
2023/03/12 05:33:01;;;;;;;3.70;3.50;;;;;;;2.56;61.95;100548.94;5095682;28;20612;-67
2023/03/12 05:35:28;;;;;;;4.57;3.90;;;;;;;2.55;62.33;100544.59;5079027;28;20218;-67
2023/03/12 05:37:54;;;;;;;4.20;4.10;;;;;;;2.57;61.23;100540.13;5113886;28;20275;-67
2023/03/12 05:40:20;;;;;;;3.77;3.47;;;;;;;2.66;61.06;100554.72;5094916;28;20629;-68
2023/03/12 05:42:47;;;;;;;3.43;3.20;;;;;;;2.66;61.07;100552.06;5095576;28;20219;-68
2023/03/12 05:45:13;;;;;;;3.90;3.27;;;;;;;2.63;62.13;100550.41;5095622;28;20189;-68
2023/03/12 05:47:44;;;;;;;4.53;4.03;;;;;;;2.69;61.38;100544.03;5096096;28;20622;-68
2023/03/12 05:50:11;;;;;;;4.10;3.70;;;;;;;2.68;61.93;100535.25;5096126;28;20239;-68
2023/03/12 05:52:37;;;;;;;5.80;4.50;;;;;;;2.67;62.09;100537.94;5095434;28;20764;-67
2023/03/12 05:55:04;;;;;;;5.00;4.70;;;;;;;2.72;62.31;100538.59;5095534;28;20192;-68
2023/03/12 05:57:31;;;;;;;4.73;4.53;;;;;;;2.68;63.61;100524.66;5095409;28;20193;-68
2023/03/12 05:59:59;;;;;;;4.77;4.57;;;;;;;2.64;63.46;100517.78;5095458;28;20194;-68
2023/03/12 06:02:25;;;;;;;5.17;3.67;;;;;;;2.55;64.13;100511.09;5095282;28;20750;-67
2023/03/12 06:04:52;;;;;;;4.47;4.07;;;;;;;2.62;64.41;100500.28;5095384;28;20723;-67
2023/03/12 06:07:19;;;;;;;7.03;5.10;;;;;;;2.60;64.22;100505.63;5095298;28;20560;-67
2023/03/12 06:09:45;;;;;;;4.83;4.47;;;;;;;2.59;64.55;100495.13;5113667;28;20197;-67
2023/03/12 06:12:12;;;;;;;4.57;4.17;;;;;;;2.56;64.76;100493.44;5095282;28;20303;-67
2023/03/12 06:14:39;;;;;;;13.07;4.00;;;;;;;2.68;64.54;100487.66;5095353;28;20637;-67
2023/03/12 06:17:06;;;;;;;6.53;4.73;;;;;;;2.58;64.46;100475.72;5095343;28;20182;-67
2023/03/12 06:19:32;;;;;;;5.00;4.70;;;;;;;2.63;65.38;100476.38;5078579;28;20194;-67
2023/03/12 06:21:59;;;;;;;4.80;4.33;;;;;;;2.61;65.80;100483.56;5078708;28;20676;-67
2023/03/12 06:24:26;;;;;;;5.10;4.70;;;;;;;2.58;66.49;100486.31;5078472;28;20223;-67
2023/03/12 06:26:59;;;;;;;4.40;4.10;;;;;;;2.62;66.58;100473.84;5095132;28;20224;-67
2023/03/12 06:29:25;;;;;;;6.60;5.27;;;;;;;2.63;66.67;100472.91;5113955;28;20207;-67
2023/03/12 06:31:51;;;;;;;5.53;5.13;;;;;;;2.64;67.18;100475.47;5113597;28;20216;-67
2023/03/12 06:34:18;;;;;;;7.67;4.23;;;;;;;2.58;67.64;100488.94;5113929;28;20174;-67
2023/03/12 06:36:44;;;;;;;4.27;4.17;;;;;;;2.61;67.60;100488.84;5113339;28;20193;-67
2023/03/12 06:39:11;;;;;;;10.03;5.17;;;;;;;2.59;67.90;100488.03;5113308;28;20196;-68
2023/03/12 06:41:37;;;;;;;6.90;6.40;;;;;;;2.60;67.95;100492.41;5113485;28;20213;-68
2023/03/12 06:44:04;;;;;;;5.03;4.93;;;;;;;2.65;67.68;100492.19;5113856;28;20169;-68
2023/03/12 06:46:31;;;;;;;5.20;4.80;;;;;;;2.64;67.86;100486.06;5113671;28;20207;-68
2023/03/12 06:48:58;;;;;;;5.00;4.50;;;;;;;2.73;67.84;100482.13;5113510;28;20658;-68
2023/03/12 06:51:24;;;;;;;11.57;5.50;;;;;;;2.69;68.53;100477.94;5114586;28;20209;-68
2023/03/12 06:53:50;;;;;;;8.03;6.53;;;;;;;2.71;68.68;100468.16;5117564;28;20195;-68
2023/03/12 06:56:17;;;;;;;5.87;5.30;;;;;;;2.61;69.62;100472.09;5117193;28;20203;-68
2023/03/12 06:58:43;;;;;;;4.70;4.57;;;;;;;2.65;69.79;100469.25;5116923;28;20184;-68
2023/03/12 07:01:10;;;;;;;4.73;4.47;;;;;;;2.62;69.99;100471.19;5117048;28;20619;-67
2023/03/12 07:03:36;;;;;;;5.10;4.40;;;;;;;2.67;70.29;100477.13;5116836;28;20192;-68
2023/03/12 07:06:03;;;;;;;5.73;5.33;;;;;;;2.70;70.74;100475.19;5116773;28;20177;-68
2023/03/12 07:08:29;;;;;;;11.90;4.73;;;;;;;2.70;71.37;100479.63;5116674;28;20212;-68
2023/03/12 07:10:57;;;;;;;4.57;4.33;;;;;;;2.75;71.84;100472.34;5116677;28;20667;-68
2023/03/12 07:13:26;;;;;;;5.10;4.70;;;;;;;2.74;72.08;100478.59;5116853;28;20302;-68
2023/03/12 07:15:53;;;;;;;5.03;4.10;;;;;;;2.69;72.03;100478.78;5117103;28;20196;-69
2023/03/12 07:18:19;;;;;;;3.93;3.83;;;;;;;2.69;72.27;100476.13;5116521;28;20183;-68
2023/03/12 07:20:46;;;;;;;5.00;4.60;;;;;;;2.74;71.98;100486.53;5116493;28;20189;-68
2023/03/12 07:23:13;;;;;;;9.00;4.73;;;;;;;2.75;72.38;100478.53;5116429;28;20646;-68
2023/03/12 07:25:41;;;;;;;6.33;5.57;;;;;;;2.75;73.76;100488.22;5116336;28;20214;-68
2023/03/12 07:28:09;;;;;;;5.57;5.37;;;;;;;2.74;74.05;100483.88;5116799;28;20207;-68
2023/03/12 07:30:36;;;;;;;5.20;5.00;;;;;;;2.66;74.46;100473.63;5116321;28;20184;-68
2023/03/12 07:33:05;;;;;;;5.70;5.30;;;;;;;2.62;75.22;100474.69;5116140;28;20218;-68
2023/03/12 07:35:31;;;;;;;4.87;4.67;;;;;;;2.63;75.53;100465.81;5116171;28;20682;-68
2023/03/12 07:37:59;;;;;;;4.43;4.13;;;;;;;2.68;75.77;100460.34;5116135;28;20189;-68
2023/03/12 07:40:27;;;;;;;4.97;4.63;;;;;;;2.69;77.03;100456.78;5116142;28;20187;-68
2023/03/12 07:42:54;;;;;;;7.90;6.10;;;;;;;2.64;77.54;100456.97;5116026;28;20694;-68
2023/03/12 07:45:20;;;;;;;6.90;6.10;;;;;;;2.74;77.78;100455.66;5115978;28;20185;-68
2023/03/12 07:47:47;;;;;;;5.93;4.77;;;;;;;2.82;77.79;100444.72;5115873;28;20565;-68
2023/03/12 07:50:14;;;;;;;16.40;5.50;;;;;;;2.81;78.13;100445.66;5116145;28;20547;-69
2023/03/12 07:52:41;;;;;;;5.07;4.77;;;;;;;2.80;78.70;100449.22;5115814;28;20219;-69
2023/03/12 07:55:09;;;;;;;5.33;5.17;;;;;;;2.81;79.27;100453.59;5116072;28;20195;-69
2023/03/12 07:57:36;;;;;;;6.63;5.07;;;;;;;2.79;79.08;100439.56;5116242;28;20707;-69
2023/03/12 08:00:06;;;;;;;6.60;5.50;;;;;;;2.86;79.17;100434.88;5115716;28;20211;-69
2023/03/12 08:02:37;;;;;;;5.63;5.53;;;;;;;2.91;79.35;100435.53;5114798;28;20593;-68
2023/03/12 08:05:05;;;;;;;6.33;5.47;;;;;;;2.86;79.69;100433.09;5115597;28;20192;-68
2023/03/12 08:07:33;;;;;;;10.83;5.57;;;;;;;2.96;79.43;100425.59;5115491;28;20572;-70
2023/03/12 08:10:03;;;;;;;6.43;5.93;;;;;;;2.95;79.99;100418.59;5115523;28;20186;-69
2023/03/12 08:12:30;;;;;;;10.03;5.47;;;;;;;3.02;80.11;100419.16;5115409;28;20275;-68
2023/03/12 08:14:57;;;;;;;6.57;5.93;;;;;;;3.08;79.92;100421.53;5115398;28;20277;-68
2023/03/12 08:17:23;;;;;;;5.73;5.53;;;;;;;3.14;80.04;100430.06;5115408;28;20268;-68
2023/03/12 08:19:50;;;;;;;5.87;5.60;;;;;;;3.24;80.00;100427.84;5115350;28;20185;-69
2023/03/12 08:22:16;;;;;;;5.67;5.40;;;;;;;3.22;80.48;100429.69;5115205;28;20218;-68
2023/03/12 08:24:43;;;;;;;6.70;6.40;;;;;;;3.24;79.96;100430.50;5115501;28;20196;-68
2023/03/12 08:27:11;;;;;;;6.87;6.30;;;;;;;3.31;80.25;100417.84;5115366;28;20274;-68
2023/03/12 08:29:38;;;;;;;6.37;5.97;;;;;;;3.31;80.64;100431.94;5115498;28;20188;-68
2023/03/12 08:32:05;;;;;;;7.13;6.50;;;;;;;3.37;80.34;100422.81;5115309;28;20218;-68
2023/03/12 08:34:33;;;;;;;6.40;6.10;;;;;;;3.50;79.68;100423.97;5115024;28;20279;-68
2023/03/12 08:37:00;;;;;;;6.50;6.30;;;;;;;3.62;79.80;100430.47;5115269;28;20221;-68
2023/03/12 08:39:26;;;;;;;7.20;6.53;;;;;;;3.65;81.27;100424.19;5114970;28;20181;-68
2023/03/12 08:41:54;;;;;;;9.27;6.33;;;;;;;3.67;81.60;100428.47;5114838;28;20310;-68
2023/03/12 08:44:22;;;;;;;9.93;6.50;;;;;;;3.69;81.25;100415.13;5115425;28;20192;-68
2023/03/12 08:46:48;;;;;;;6.50;6.30;;;;;;;3.75;80.92;100412.19;5096654;28;20193;-68
2023/03/12 08:49:15;;;;;;;7.23;5.80;;;;;;;3.82;81.41;100414.47;5114696;28;20551;-68
2023/03/12 08:51:41;;;;;;;6.73;6.53;;;;;;;3.85;81.34;100413.47;5115165;28;20216;-68
2023/03/12 08:54:08;;;;;;;7.20;6.60;;;;;;;3.92;81.29;100408.72;5114699;28;20188;-68
2023/03/12 08:56:37;;;;;;;6.43;5.73;;;;;;;3.94;81.11;100404.22;5115197;28;20275;-68
2023/03/12 08:59:03;;;;;;;7.60;6.80;;;;;;;4.02;80.83;100404.69;5114848;28;20173;-68
2023/03/12 09:01:30;;;;;;;5.73;5.53;;;;;;;4.02;81.98;100400.25;5114439;28;20213;-68
2023/03/12 09:03:56;;;;;;;7.07;6.57;;;;;;;4.13;82.50;100406.81;5114519;28;20188;-68
2023/03/12 09:06:22;;;;;;;8.40;6.50;;;;;;;4.09;81.32;100408.72;5114756;28;20213;-69
2023/03/12 09:08:50;;;;;;;6.87;6.23;;;;;;;4.14;81.52;100408.50;5114343;28;20220;-69
2023/03/12 09:11:16;;;;;;;7.00;6.40;;;;;;;4.17;81.42;100403.94;5114347;28;20715;-68
2023/03/12 09:13:43;;;;;;;7.27;6.67;;;;;;;4.20;81.50;100401.09;5114547;28;20702;-68
2023/03/12 09:16:30;;;;;;;6.17;5.77;;;;;;;4.26;81.33;100410.53;5114248;28;20593;-68
2023/03/12 09:18:56;;;;;;;6.10;5.80;;;;;;;4.30;81.75;100406.78;5114174;28;20173;-68
2023/03/12 09:21:23;;;;;;;6.60;6.40;;;;;;;4.35;82.00;100398.59;5114098;28;20215;-68
2023/03/12 09:23:49;;;;;;;6.57;6.17;;;;;;;4.32;82.21;100390.81;5114519;28;20639;-68
2023/03/12 09:26:16;;;;;;;5.97;5.87;;;;;;;4.30;82.82;100385.59;5114140;28;20646;-68
2023/03/12 09:28:43;;;;;;;6.10;5.53;;;;;;;4.29;83.73;100389.19;5114029;28;20216;-69
2023/03/12 09:31:10;;;;;;;6.90;6.40;;;;;;;4.36;84.67;100387.09;5113899;28;20242;-68
2023/03/12 09:33:37;;;;;;;6.63;6.33;;;;;;;4.32;85.21;100391.69;5114272;28;20182;-68
2023/03/12 09:36:04;;;;;;;6.87;6.47;;;;;;;4.37;85.21;100405.53;5114499;28;20182;-68
2023/03/12 09:38:31;;;;;;;6.63;6.27;;;;;;;4.36;85.74;100403.84;5113898;28;20205;-68
2023/03/12 09:40:57;;;;;;;7.97;7.57;;;;;;;4.36;86.32;100403.84;5114550;28;20539;-68
2023/03/12 09:43:46;;;;;;;6.53;5.93;;;;;;;4.21;86.64;100400.19;5113765;28;20204;-67
2023/03/12 09:46:22;;;;;;;5.83;5.73;;;;;;;4.22;87.74;100399.25;5114413;28;20176;-68
2023/03/12 09:48:52;;;;;;;5.40;5.20;;;;;;;4.28;87.36;100415.75;5114343;28;20197;-68
2023/03/12 09:51:50;;;;;;;6.13;5.93;;;;;;;4.31;87.72;100416.47;5113690;28;20184;-67
2023/03/12 09:54:30;;;;;;;9.00;6.07;;;;;;;4.37;87.33;100418.81;5112945;28;20582;-69
2023/03/12 09:57:03;;;;;;;5.90;5.40;;;;;;;4.43;87.98;100417.63;5113916;28;20191;-68
2023/03/12 09:59:29;;;;;;;6.10;5.67;;;;;;;4.51;88.11;100418.09;5113719;28;20592;-69
2023/03/12 10:02:00;;;;;;;5.97;5.50;;;;;;;4.59;88.49;100412.38;5114136;28;20291;-68
2023/03/12 10:04:45;;;;;;;6.00;5.90;;;;;;;4.71;88.77;100413.53;5113888;28;20181;-69
2023/03/12 10:07:34;;;;;;;5.83;5.67;;;;;;;4.77;88.67;100415.88;5113601;28;20188;-69
2023/03/12 10:10:39;;;;;;;6.20;5.70;;;;;;;4.73;89.21;100423.13;5113864;28;20173;-68
2023/03/12 10:13:18;;;;;;;6.07;5.63;;;;;;;4.80;89.39;100423.69;5011275;28;20220;-68
2023/03/12 10:15:53;;;;;;;7.27;6.90;;;;;;;4.89;89.92;100420.53;5011906;28;20184;-68
2023/03/12 10:18:40;;;;;;;6.80;6.50;;;;;;;4.90;90.81;100415.13;5074530;28;20242;-70
2023/03/12 10:21:42;;;;;;;7.60;7.10;;;;;;;4.98;90.84;100428.00;5113695;28;20173;-69
2023/03/12 10:24:40;;;;;;;6.83;6.47;;;;;;;5.06;90.88;100420.47;5113339;28;20279;-69
2023/03/12 10:27:14;;;;;;;6.37;6.13;;;;;;;5.08;91.11;100415.09;5116522;28;20529;-69
2023/03/12 10:29:44;;;;;;;6.20;6.00;;;;;;;5.03;91.32;100404.75;5117396;28;20197;-69
2023/03/12 10:32:18;;;;;;;6.43;6.10;;;;;;;5.01;91.98;100414.56;5117576;28;20570;-69
2023/03/12 10:34:49;;;;;;;7.53;7.00;;;;;;;5.09;91.62;100414.16;5117731;28;20165;-67
2023/03/12 10:37:21;;;;;;;7.13;6.93;;;;;;;5.12;91.97;100413.97;5117722;28;20171;-69
2023/03/12 10:39:48;;;;;;;7.37;6.70;;;;;;;5.19;92.08;100420.66;5117952;28;20180;-69
2023/03/12 10:42:18;;;;;;;7.50;7.00;;;;;;;5.22;91.57;100422.28;5117246;28;20211;-69
2023/03/12 10:44:47;;;;;;;8.37;7.97;;;;;;;5.28;92.15;100435.25;5117743;28;20182;-69
2023/03/12 10:47:39;;;;;;;8.07;7.67;;;;;;;5.22;91.70;100432.91;5118220;28;20536;-69
2023/03/12 10:50:20;;;;;;;8.00;7.63;;;;;;;5.22;91.82;100424.94;5117121;28;20186;-69
2023/03/12 10:52:49;;;;;;;8.53;8.03;;;;;;;5.27;92.31;100428.25;5117101;28;20212;-69
2023/03/12 10:55:31;;;;;;;8.07;7.60;;;;;;;5.44;92.08;100422.00;5117642;28;20177;-69
2023/03/12 10:57:57;;;;;;;7.50;7.30;;;;;;;5.49;92.37;100417.28;5117166;28;20173;-69
2023/03/12 11:00:26;;;;;;;9.83;9.13;;;;;;;5.56;92.10;100423.13;5116912;28;20210;-69
2023/03/12 11:03:02;;;;;;;9.90;9.20;;;;;;;5.62;92.31;100436.03;5116808;28;20209;-69
2023/03/12 11:05:47;;;;;;;9.67;8.97;;;;;;;5.63;91.95;100441.28;5117047;28;20646;-70
2023/03/12 11:08:19;;;;;;;10.03;9.30;;;;;;;5.46;92.11;100436.91;5116995;28;20197;-70
2023/03/12 11:10:46;;;;;;;17.13;11.00;;;;;;;5.46;92.56;100443.97;5098383;28;20295;-70
2023/03/12 11:13:38;;;;;;;13.20;12.10;;;;;;;5.45;92.68;100440.47;5116650;28;20576;-69
2023/03/12 11:16:17;;;;;;;15.13;13.47;;;;;;;5.51;93.16;100439.31;5116989;28;20189;-69
2023/03/12 11:19:00;;;;;;;14.33;12.87;;;;;;;5.58;93.54;100439.78;5116866;28;20192;-69
2023/03/12 11:21:27;;;;;;;18.67;14.33;;;;;;;5.67;93.27;100433.97;5116751;28;20279;-69
2023/03/12 11:23:57;;;;;;;15.53;13.97;;;;;;;5.69;93.51;100421.47;5116356;28;20545;-69
2023/03/12 11:26:38;;;;;;;17.83;14.27;;;;;;;5.67;93.37;100420.69;5117025;28;20182;-69
2023/03/12 11:29:42;;;;;;;20.13;14.43;;;;;;;5.70;93.32;100426.69;5116618;28;20268;-69
2023/03/12 11:32:16;;;;;;;25.03;15.73;;;;;;;5.81;93.72;100422.56;5099850;28;20274;-69
2023/03/12 11:34:46;;;;;;;19.53;15.07;;;;;;;5.84;93.81;100417.94;5116504;28;20188;-69
2023/03/12 11:37:37;;;;;;;22.90;15.53;;;;;;;5.92;93.61;100409.53;5115648;28;20193;-69
2023/03/12 11:40:32;;;;;;;19.77;15.00;;;;;;;6.09;93.81;100412.09;5116673;28;20198;-69